sensor_id;sensor_type;location;lat;lon;timestamp;P1;durP1;ratioP1;P2;durP2;ratioP2
35494;SDS011;75532;49.300;6.846;2024-02-28T00:00:44;2.28;;;2.17;;
35494;SDS011;75532;49.300;6.846;2024-02-28T00:03:45;2.78;;;2.55;;
35494;SDS011;75532;49.300;6.846;2024-02-28T00:06:46;2.42;;;2.28;;
35494;SDS011;75532;49.300;6.846;2024-02-28T00:09:47;2.72;;;2.33;;
35494;SDS011;75532;49.300;6.846;2024-02-28T00:12:48;2.65;;;2.45;;
35494;SDS011;75532;49.300;6.846;2024-02-28T00:15:48;2.75;;;2.53;;
35494;SDS011;75532;49.300;6.846;2024-02-28T00:18:49;3.15;;;2.63;;
35494;SDS011;75532;49.300;6.846;2024-02-28T00:21:49;2.63;;;2.30;;
35494;SDS011;75532;49.300;6.846;2024-02-28T00:24:50;2.78;;;2.58;;
35494;SDS011;75532;49.300;6.846;2024-02-28T00:27:50;2.30;;;2.10;;
35494;SDS011;75532;49.300;6.846;2024-02-28T00:30:51;2.50;;;2.40;;
35494;SDS011;75532;49.300;6.846;2024-02-28T00:33:51;3.50;;;2.42;;
35494;SDS011;75532;49.300;6.846;2024-02-28T00:36:52;2.75;;;2.55;;
35494;SDS011;75532;49.300;6.846;2024-02-28T00:39:53;2.33;;;2.22;;
35494;SDS011;75532;49.300;6.846;2024-02-28T00:42:53;2.03;;;1.92;;
35494;SDS011;75532;49.300;6.846;2024-02-28T00:45:54;2.80;;;2.60;;
35494;SDS011;75532;49.300;6.846;2024-02-28T00:48:55;2.83;;;2.13;;
35494;SDS011;75532;49.300;6.846;2024-02-28T00:51:56;2.33;;;2.20;;
35494;SDS011;75532;49.300;6.846;2024-02-28T00:54:57;2.42;;;2.33;;
35494;SDS011;75532;49.300;6.846;2024-02-28T00:57:57;2.10;;;2.00;;
35494;SDS011;75532;49.300;6.846;2024-02-28T01:00:58;2.80;;;2.60;;
35494;SDS011;75532;49.300;6.846;2024-02-28T01:03:59;2.40;;;2.30;;
35494;SDS011;75532;49.300;6.846;2024-02-28T01:06:59;2.78;;;2.58;;
35494;SDS011;75532;49.300;6.846;2024-02-28T01:10:00;2.50;;;2.30;;
35494;SDS011;75532;49.300;6.846;2024-02-28T01:13:00;2.45;;;2.17;;
35494;SDS011;75532;49.300;6.846;2024-02-28T01:16:01;2.63;;;2.42;;
35494;SDS011;75532;49.300;6.846;2024-02-28T01:19:02;3.45;;;2.22;;
35494;SDS011;75532;49.300;6.846;2024-02-28T01:22:03;2.15;;;2.05;;
35494;SDS011;75532;49.300;6.846;2024-02-28T01:25:03;2.55;;;2.15;;
35494;SDS011;75532;49.300;6.846;2024-02-28T01:28:04;2.65;;;2.40;;
35494;SDS011;75532;49.300;6.846;2024-02-28T01:31:05;2.70;;;2.50;;
35494;SDS011;75532;49.300;6.846;2024-02-28T01:34:05;2.30;;;2.20;;
35494;SDS011;75532;49.300;6.846;2024-02-28T01:37:06;2.30;;;2.20;;
35494;SDS011;75532;49.300;6.846;2024-02-28T01:40:07;2.47;;;2.28;;
35494;SDS011;75532;49.300;6.846;2024-02-28T01:43:08;2.97;;;2.17;;
35494;SDS011;75532;49.300;6.846;2024-02-28T01:46:22;2.45;;;2.13;;
35494;SDS011;75532;49.300;6.846;2024-02-28T01:49:27;2.25;;;2.15;;
35494;SDS011;75532;49.300;6.846;2024-02-28T01:52:27;2.53;;;2.42;;
35494;SDS011;75532;49.300;6.846;2024-02-28T01:55:28;2.22;;;2.13;;
35494;SDS011;75532;49.300;6.846;2024-02-28T01:58:29;2.28;;;2.17;;
35494;SDS011;75532;49.300;6.846;2024-02-28T02:01:30;2.50;;;2.30;;
35494;SDS011;75532;49.300;6.846;2024-02-28T02:04:31;2.80;;;2.60;;
35494;SDS011;75532;49.300;6.846;2024-02-28T02:07:31;2.30;;;2.20;;
35494;SDS011;75532;49.300;6.846;2024-02-28T02:10:32;2.42;;;2.22;;
35494;SDS011;75532;49.300;6.846;2024-02-28T02:13:33;2.10;;;2.00;;
35494;SDS011;75532;49.300;6.846;2024-02-28T02:16:35;2.25;;;2.15;;
35494;SDS011;75532;49.300;6.846;2024-02-28T02:19:35;2.53;;;2.33;;
35494;SDS011;75532;49.300;6.846;2024-02-28T02:22:37;2.63;;;2.42;;
35494;SDS011;75532;49.300;6.846;2024-02-28T02:25:47;4.07;;;2.40;;
35494;SDS011;75532;49.300;6.846;2024-02-28T02:28:48;2.25;;;2.10;;
35494;SDS011;75532;49.300;6.846;2024-02-28T02:31:48;1.95;;;1.85;;
35494;SDS011;75532;49.300;6.846;2024-02-28T02:34:49;2.67;;;2.47;;
35494;SDS011;75532;49.300;6.846;2024-02-28T02:37:49;2.33;;;2.22;;
35494;SDS011;75532;49.300;6.846;2024-02-28T02:40:50;2.50;;;2.13;;
35494;SDS011;75532;49.300;6.846;2024-02-28T02:43:51;2.22;;;2.13;;
35494;SDS011;75532;49.300;6.846;2024-02-28T02:46:52;2.25;;;2.13;;
35494;SDS011;75532;49.300;6.846;2024-02-28T02:49:53;2.47;;;2.30;;
35494;SDS011;75532;49.300;6.846;2024-02-28T02:52:53;2.30;;;2.10;;
35494;SDS011;75532;49.300;6.846;2024-02-28T02:55:54;2.40;;;2.20;;
35494;SDS011;75532;49.300;6.846;2024-02-28T02:58:54;3.08;;;2.70;;
35494;SDS011;75532;49.300;6.846;2024-02-28T03:01:55;2.38;;;2.17;;
35494;SDS011;75532;49.300;6.846;2024-02-28T03:04:55;2.17;;;2.08;;
35494;SDS011;75532;49.300;6.846;2024-02-28T03:07:56;1.90;;;1.80;;
35494;SDS011;75532;49.300;6.846;2024-02-28T03:10:57;2.33;;;2.22;;
35494;SDS011;75532;49.300;6.846;2024-02-28T03:14:01;2.40;;;2.20;;
35494;SDS011;75532;49.300;6.846;2024-02-28T03:17:02;2.22;;;2.13;;
35494;SDS011;75532;49.300;6.846;2024-02-28T03:20:03;2.45;;;2.35;;
35494;SDS011;75532;49.300;6.846;2024-02-28T03:23:05;2.33;;;2.22;;
35494;SDS011;75532;49.300;6.846;2024-02-28T03:26:06;2.03;;;1.92;;
35494;SDS011;75532;49.300;6.846;2024-02-28T03:29:07;2.33;;;2.13;;
35494;SDS011;75532;49.300;6.846;2024-02-28T03:32:07;2.40;;;2.30;;
35494;SDS011;75532;49.300;6.846;2024-02-28T03:35:08;2.35;;;2.22;;
35494;SDS011;75532;49.300;6.846;2024-02-28T03:38:08;3.20;;;2.30;;
35494;SDS011;75532;49.300;6.846;2024-02-28T03:41:09;1.88;;;1.77;;
35494;SDS011;75532;49.300;6.846;2024-02-28T03:44:09;2.33;;;2.22;;
35494;SDS011;75532;49.300;6.846;2024-02-28T03:47:10;2.40;;;2.25;;
35494;SDS011;75532;49.300;6.846;2024-02-28T03:50:11;2.30;;;2.13;;
35494;SDS011;75532;49.300;6.846;2024-02-28T03:53:12;1.73;;;1.63;;
35494;SDS011;75532;49.300;6.846;2024-02-28T03:56:12;1.80;;;1.70;;
35494;SDS011;75532;49.300;6.846;2024-02-28T03:59:13;2.35;;;2.15;;
35494;SDS011;75532;49.300;6.846;2024-02-28T04:02:13;2.15;;;2.05;;
35494;SDS011;75532;49.300;6.846;2024-02-28T04:05:14;2.17;;;2.08;;
35494;SDS011;75532;49.300;6.846;2024-02-28T04:08:15;2.67;;;2.47;;
35494;SDS011;75532;49.300;6.846;2024-02-28T04:11:15;2.15;;;2.05;;
35494;SDS011;75532;49.300;6.846;2024-02-28T04:14:16;2.72;;;2.00;;
35494;SDS011;75532;49.300;6.846;2024-02-28T04:17:16;2.10;;;2.00;;
35494;SDS011;75532;49.300;6.846;2024-02-28T04:20:17;2.20;;;2.10;;
35494;SDS011;75532;49.300;6.846;2024-02-28T04:23:17;1.80;;;1.70;;
35494;SDS011;75532;49.300;6.846;2024-02-28T04:26:18;2.17;;;2.08;;
35494;SDS011;75532;49.300;6.846;2024-02-28T04:29:19;2.22;;;2.13;;
35494;SDS011;75532;49.300;6.846;2024-02-28T04:32:19;2.15;;;2.05;;
35494;SDS011;75532;49.300;6.846;2024-02-28T04:35:20;2.20;;;2.10;;
35494;SDS011;75532;49.300;6.846;2024-02-28T04:38:20;2.00;;;1.90;;
35494;SDS011;75532;49.300;6.846;2024-02-28T04:41:21;2.13;;;2.03;;
35494;SDS011;75532;49.300;6.846;2024-02-28T04:44:22;2.30;;;2.20;;
35494;SDS011;75532;49.300;6.846;2024-02-28T04:47:22;2.00;;;1.90;;
35494;SDS011;75532;49.300;6.846;2024-02-28T04:50:23;2.30;;;2.20;;
35494;SDS011;75532;49.300;6.846;2024-02-28T04:53:24;2.00;;;1.90;;
35494;SDS011;75532;49.300;6.846;2024-02-28T04:56:24;1.75;;;1.65;;
35494;SDS011;75532;49.300;6.846;2024-02-28T04:59:25;2.08;;;1.98;;
35494;SDS011;75532;49.300;6.846;2024-02-28T05:02:25;2.22;;;2.13;;
35494;SDS011;75532;49.300;6.846;2024-02-28T05:05:26;2.88;;;2.00;;
35494;SDS011;75532;49.300;6.846;2024-02-28T05:08:26;2.22;;;2.13;;
35494;SDS011;75532;49.300;6.846;2024-02-28T05:11:28;2.40;;;2.30;;
35494;SDS011;75532;49.300;6.846;2024-02-28T05:14:29;2.15;;;2.05;;
35494;SDS011;75532;49.300;6.846;2024-02-28T05:17:29;2.53;;;2.42;;
35494;SDS011;75532;49.300;6.846;2024-02-28T05:20:30;2.22;;;2.13;;
35494;SDS011;75532;49.300;6.846;2024-02-28T05:23:30;2.00;;;1.90;;
35494;SDS011;75532;49.300;6.846;2024-02-28T05:26:31;8.63;;;3.08;;
35494;SDS011;75532;49.300;6.846;2024-02-28T05:29:34;7.63;;;2.50;;
35494;SDS011;75532;49.300;6.846;2024-02-28T05:32:34;8.25;;;3.13;;
35494;SDS011;75532;49.300;6.846;2024-02-28T05:35:35;3.00;;;2.67;;
35494;SDS011;75532;49.300;6.846;2024-02-28T05:38:35;2.67;;;2.17;;
35494;SDS011;75532;49.300;6.846;2024-02-28T05:41:36;5.75;;;3.17;;
35494;SDS011;75532;49.300;6.846;2024-02-28T05:44:36;5.63;;;2.38;;
35494;SDS011;75532;49.300;6.846;2024-02-28T05:47:37;2.38;;;2.17;;
35494;SDS011;75532;49.300;6.846;2024-02-28T05:50:37;4.88;;;2.53;;
35494;SDS011;75532;49.300;6.846;2024-02-28T05:53:38;5.80;;;2.80;;
35494;SDS011;75532;49.300;6.846;2024-02-28T05:56:40;5.80;;;2.30;;
35494;SDS011;75532;49.300;6.846;2024-02-28T05:59:40;6.68;;;2.53;;
35494;SDS011;75532;49.300;6.846;2024-02-28T06:02:41;5.43;;;2.20;;
35494;SDS011;75532;49.300;6.846;2024-02-28T06:05:42;4.25;;;2.40;;
35494;SDS011;75532;49.300;6.846;2024-02-28T06:08:42;2.38;;;2.03;;
35494;SDS011;75532;49.300;6.846;2024-02-28T06:11:43;2.63;;;2.42;;
35494;SDS011;75532;49.300;6.846;2024-02-28T06:14:44;4.38;;;2.38;;
35494;SDS011;75532;49.300;6.846;2024-02-28T06:17:45;3.05;;;2.13;;
35494;SDS011;75532;49.300;6.846;2024-02-28T06:20:45;2.40;;;2.20;;
35494;SDS011;75532;49.300;6.846;2024-02-28T06:23:46;4.05;;;2.60;;
35494;SDS011;75532;49.300;6.846;2024-02-28T06:26:46;2.67;;;2.25;;
35494;SDS011;75532;49.300;6.846;2024-02-28T06:29:47;2.05;;;1.90;;
35494;SDS011;75532;49.300;6.846;2024-02-28T06:32:49;2.47;;;2.28;;
35494;SDS011;75532;49.300;6.846;2024-02-28T06:35:49;3.63;;;2.47;;
35494;SDS011;75532;49.300;6.846;2024-02-28T06:38:50;4.15;;;2.58;;
35494;SDS011;75532;49.300;6.846;2024-02-28T06:41:50;2.38;;;2.17;;
35494;SDS011;75532;49.300;6.846;2024-02-28T06:44:51;2.63;;;2.42;;
35494;SDS011;75532;49.300;6.846;2024-02-28T06:47:52;5.93;;;2.58;;
35494;SDS011;75532;49.300;6.846;2024-02-28T06:50:52;2.40;;;2.30;;
35494;SDS011;75532;49.300;6.846;2024-02-28T06:53:53;2.75;;;2.38;;
35494;SDS011;75532;49.300;6.846;2024-02-28T06:56:54;2.75;;;2.55;;
35494;SDS011;75532;49.300;6.846;2024-02-28T06:59:55;4.57;;;2.72;;
35494;SDS011;75532;49.300;6.846;2024-02-28T07:02:55;2.80;;;2.60;;
35494;SDS011;75532;49.300;6.846;2024-02-28T07:05:56;7.43;;;2.75;;
35494;SDS011;75532;49.300;6.846;2024-02-28T07:08:57;5.10;;;4.70;;
35494;SDS011;75532;49.300;6.846;2024-02-28T07:12:00;4.63;;;4.22;;
35494;SDS011;75532;49.300;6.846;2024-02-28T07:15:01;8.48;;;7.78;;
35494;SDS011;75532;49.300;6.846;2024-02-28T07:18:02;8.32;;;7.40;;
35494;SDS011;75532;49.300;6.846;2024-02-28T07:21:02;7.80;;;7.10;;
35494;SDS011;75532;49.300;6.846;2024-02-28T07:24:03;11.43;;;6.20;;
35494;SDS011;75532;49.300;6.846;2024-02-28T07:27:05;12.40;;;5.55;;
35494;SDS011;75532;49.300;6.846;2024-02-28T07:30:06;19.35;;;5.90;;
35494;SDS011;75532;49.300;6.846;2024-02-28T07:33:07;17.25;;;4.80;;
35494;SDS011;75532;49.300;6.846;2024-02-28T07:36:08;5.57;;;4.50;;
35494;SDS011;75532;49.300;6.846;2024-02-28T07:39:10;10.65;;;4.00;;
35494;SDS011;75532;49.300;6.846;2024-02-28T07:42:12;6.88;;;4.70;;
35494;SDS011;75532;49.300;6.846;2024-02-28T07:45:13;7.70;;;4.00;;
35494;SDS011;75532;49.300;6.846;2024-02-28T07:48:14;7.05;;;3.92;;
35494;SDS011;75532;49.300;6.846;2024-02-28T07:51:14;5.25;;;3.83;;
35494;SDS011;75532;49.300;6.846;2024-02-28T07:54:15;6.53;;;4.32;;
35494;SDS011;75532;49.300;6.846;2024-02-28T07:57:15;4.53;;;4.00;;
35494;SDS011;75532;49.300;6.846;2024-02-28T08:00:16;5.18;;;3.72;;
35494;SDS011;75532;49.300;6.846;2024-02-28T08:03:19;6.55;;;4.40;;
35494;SDS011;75532;49.300;6.846;2024-02-28T08:06:19;8.40;;;4.05;;
35494;SDS011;75532;49.300;6.846;2024-02-28T08:09:20;16.90;;;4.82;;
35494;SDS011;75532;49.300;6.846;2024-02-28T08:12:22;26.08;;;7.07;;
35494;SDS011;75532;49.300;6.846;2024-02-28T08:15:23;28.55;;;7.47;;
35494;SDS011;75532;49.300;6.846;2024-02-28T08:18:24;28.05;;;7.93;;
35494;SDS011;75532;49.300;6.846;2024-02-28T08:21:25;13.77;;;6.30;;
35494;SDS011;75532;49.300;6.846;2024-02-28T08:24:26;25.73;;;7.93;;
35494;SDS011;75532;49.300;6.846;2024-02-28T08:27:27;30.08;;;10.50;;
35494;SDS011;75532;49.300;6.846;2024-02-28T08:30:28;23.50;;;8.35;;
35494;SDS011;75532;49.300;6.846;2024-02-28T08:33:28;22.77;;;9.00;;
35494;SDS011;75532;49.300;6.846;2024-02-28T08:36:29;20.75;;;7.78;;
35494;SDS011;75532;49.300;6.846;2024-02-28T08:39:29;20.73;;;7.90;;
35494;SDS011;75532;49.300;6.846;2024-02-28T08:42:30;15.90;;;7.95;;
35494;SDS011;75532;49.300;6.846;2024-02-28T08:45:31;19.80;;;8.23;;
35494;SDS011;75532;49.300;6.846;2024-02-28T08:48:34;19.50;;;8.40;;
35494;SDS011;75532;49.300;6.846;2024-02-28T08:51:37;21.13;;;8.18;;
35494;SDS011;75532;49.300;6.846;2024-02-28T08:54:38;19.17;;;7.80;;
35494;SDS011;75532;49.300;6.846;2024-02-28T08:57:39;14.75;;;8.23;;
35494;SDS011;75532;49.300;6.846;2024-02-28T09:00:39;17.30;;;7.82;;
35494;SDS011;75532;49.300;6.846;2024-02-28T09:03:40;19.70;;;7.32;;
35494;SDS011;75532;49.300;6.846;2024-02-28T09:06:41;14.80;;;7.85;;
35494;SDS011;75532;49.300;6.846;2024-02-28T09:09:41;11.48;;;7.10;;
35494;SDS011;75532;49.300;6.846;2024-02-28T09:12:43;19.48;;;7.72;;
35494;SDS011;75532;49.300;6.846;2024-02-28T09:15:43;16.08;;;7.38;;
35494;SDS011;75532;49.300;6.846;2024-02-28T09:18:44;15.48;;;8.02;;
35494;SDS011;75532;49.300;6.846;2024-02-28T09:21:45;13.32;;;6.70;;
35494;SDS011;75532;49.300;6.846;2024-02-28T09:24:47;10.18;;;6.35;;
35494;SDS011;75532;49.300;6.846;2024-02-28T09:27:48;16.17;;;6.50;;
35494;SDS011;75532;49.300;6.846;2024-02-28T09:30:49;21.50;;;14.90;;
35494;SDS011;75532;49.300;6.846;2024-02-28T09:33:50;15.75;;;13.90;;
35494;SDS011;75532;49.300;6.846;2024-02-28T09:36:51;18.02;;;14.45;;
35494;SDS011;75532;49.300;6.846;2024-02-28T09:39:52;18.02;;;14.02;;
35494;SDS011;75532;49.300;6.846;2024-02-28T09:42:53;15.95;;;12.07;;
35494;SDS011;75532;49.300;6.846;2024-02-28T09:46:04;14.10;;;10.93;;
35494;SDS011;75532;49.300;6.846;2024-02-28T09:49:05;11.23;;;9.13;;
35494;SDS011;75532;49.300;6.846;2024-02-28T09:52:07;12.07;;;9.48;;
35494;SDS011;75532;49.300;6.846;2024-02-28T09:55:07;10.52;;;8.88;;
35494;SDS011;75532;49.300;6.846;2024-02-28T09:58:08;10.02;;;7.57;;
35494;SDS011;75532;49.300;6.846;2024-02-28T10:01:11;13.48;;;8.40;;
35494;SDS011;75532;49.300;6.846;2024-02-28T10:04:15;7.85;;;6.93;;
35494;SDS011;75532;49.300;6.846;2024-02-28T10:07:16;11.35;;;7.10;;
35494;SDS011;75532;49.300;6.846;2024-02-28T10:10:17;10.15;;;6.53;;
35494;SDS011;75532;49.300;6.846;2024-02-28T10:13:18;9.93;;;7.15;;
35494;SDS011;75532;49.300;6.846;2024-02-28T10:16:18;12.18;;;6.63;;
35494;SDS011;75532;49.300;6.846;2024-02-28T10:19:19;17.45;;;7.45;;
35494;SDS011;75532;49.300;6.846;2024-02-28T10:22:20;9.68;;;7.05;;
35494;SDS011;75532;49.300;6.846;2024-02-28T10:25:20;10.20;;;6.25;;
35494;SDS011;75532;49.300;6.846;2024-02-28T10:28:21;10.35;;;6.38;;
35494;SDS011;75532;49.300;6.846;2024-02-28T10:31:22;11.50;;;6.78;;
35494;SDS011;75532;49.300;6.846;2024-02-28T10:34:22;8.93;;;6.35;;
35494;SDS011;75532;49.300;6.846;2024-02-28T10:37:23;6.72;;;6.10;;
35494;SDS011;75532;49.300;6.846;2024-02-28T10:40:24;7.63;;;6.05;;
35494;SDS011;75532;49.300;6.846;2024-02-28T10:43:26;8.25;;;6.28;;
35494;SDS011;75532;49.300;6.846;2024-02-28T10:46:30;7.43;;;6.15;;
35494;SDS011;75532;49.300;6.846;2024-02-28T10:49:31;7.78;;;5.88;;
35494;SDS011;75532;49.300;6.846;2024-02-28T10:52:32;8.80;;;5.93;;
35494;SDS011;75532;49.300;6.846;2024-02-28T10:55:34;9.60;;;5.90;;
35494;SDS011;75532;49.300;6.846;2024-02-28T10:58:50;7.93;;;5.80;;
35494;SDS011;75532;49.300;6.846;2024-02-28T11:01:55;6.55;;;5.50;;
35494;SDS011;75532;49.300;6.846;2024-02-28T11:04:55;6.03;;;5.43;;
35494;SDS011;75532;49.300;6.846;2024-02-28T11:07:56;8.55;;;6.43;;
35494;SDS011;75532;49.300;6.846;2024-02-28T11:11:06;11.32;;;6.22;;
35494;SDS011;75532;49.300;6.846;2024-02-28T11:14:07;8.30;;;5.70;;
35494;SDS011;75532;49.300;6.846;2024-02-28T11:17:15;8.15;;;6.32;;
35494;SDS011;75532;49.300;6.846;2024-02-28T11:20:31;7.60;;;5.35;;
35494;SDS011;75532;49.300;6.846;2024-02-28T11:23:38;6.50;;;5.90;;
35494;SDS011;75532;49.300;6.846;2024-02-28T11:26:38;6.40;;;5.03;;
35494;SDS011;75532;49.300;6.846;2024-02-28T11:29:39;7.22;;;5.32;;
35494;SDS011;75532;49.300;6.846;2024-02-28T11:32:41;7.45;;;6.03;;
35494;SDS011;75532;49.300;6.846;2024-02-28T11:35:42;7.55;;;5.85;;
35494;SDS011;75532;49.300;6.846;2024-02-28T11:38:43;9.25;;;5.90;;
35494;SDS011;75532;49.300;6.846;2024-02-28T11:41:44;8.93;;;5.93;;
35494;SDS011;75532;49.300;6.846;2024-02-28T11:44:54;8.65;;;6.13;;
35494;SDS011;75532;49.300;6.846;2024-02-28T11:47:57;7.82;;;5.78;;
35494;SDS011;75532;49.300;6.846;2024-02-28T11:50:58;8.75;;;6.78;;
35494;SDS011;75532;49.300;6.846;2024-02-28T11:54:01;6.78;;;6.18;;
35494;SDS011;75532;49.300;6.846;2024-02-28T11:57:02;8.25;;;6.68;;
35494;SDS011;75532;49.300;6.846;2024-02-28T12:00:04;9.05;;;6.72;;
35494;SDS011;75532;49.300;6.846;2024-02-28T12:03:09;7.68;;;6.93;;
35494;SDS011;75532;49.300;6.846;2024-02-28T12:06:09;8.45;;;6.95;;
35494;SDS011;75532;49.300;6.846;2024-02-28T12:09:14;7.43;;;6.60;;
35494;SDS011;75532;49.300;6.846;2024-02-28T12:12:14;6.07;;;5.47;;
35494;SDS011;75532;49.300;6.846;2024-02-28T12:15:16;6.72;;;6.13;;
35494;SDS011;75532;49.300;6.846;2024-02-28T12:18:16;8.98;;;6.85;;
35494;SDS011;75532;49.300;6.846;2024-02-28T12:21:17;11.65;;;7.00;;
35494;SDS011;75532;49.300;6.846;2024-02-28T12:24:18;11.25;;;7.25;;
35494;SDS011;75532;49.300;6.846;2024-02-28T12:27:19;9.25;;;6.72;;
35494;SDS011;75532;49.300;6.846;2024-02-28T12:30:20;9.85;;;6.72;;
35494;SDS011;75532;49.300;6.846;2024-02-28T12:33:21;10.05;;;6.47;;
35494;SDS011;75532;49.300;6.846;2024-02-28T12:36:22;8.23;;;6.85;;
35494;SDS011;75532;49.300;6.846;2024-02-28T12:39:23;9.15;;;7.07;;
35494;SDS011;75532;49.300;6.846;2024-02-28T12:42:23;7.60;;;6.80;;
35494;SDS011;75532;49.300;6.846;2024-02-28T12:45:24;8.50;;;7.15;;
35494;SDS011;75532;49.300;6.846;2024-02-28T12:48:25;12.00;;;7.10;;
35494;SDS011;75532;49.300;6.846;2024-02-28T12:51:39;9.13;;;6.90;;
35494;SDS011;75532;49.300;6.846;2024-02-28T12:54:40;7.93;;;7.03;;
35494;SDS011;75532;49.300;6.846;2024-02-28T12:57:41;7.28;;;6.57;;
35494;SDS011;75532;49.300;6.846;2024-02-28T13:00:41;8.38;;;6.35;;
35494;SDS011;75532;49.300;6.846;2024-02-28T13:03:42;8.45;;;7.35;;
35494;SDS011;75532;49.300;6.846;2024-02-28T13:06:43;10.20;;;7.53;;
35494;SDS011;75532;49.300;6.846;2024-02-28T13:09:43;8.00;;;7.20;;
35494;SDS011;75532;49.300;6.846;2024-02-28T13:12:44;8.63;;;6.72;;
35494;SDS011;75532;49.300;6.846;2024-02-28T13:15:44;10.40;;;7.68;;
35494;SDS011;75532;49.300;6.846;2024-02-28T13:18:45;12.55;;;7.03;;
35494;SDS011;75532;49.300;6.846;2024-02-28T13:21:46;9.70;;;6.97;;
35494;SDS011;75532;49.300;6.846;2024-02-28T13:24:46;8.10;;;7.13;;
35494;SDS011;75532;49.300;6.846;2024-02-28T13:27:47;11.77;;;7.40;;
35494;SDS011;75532;49.300;6.846;2024-02-28T13:30:47;6.90;;;6.28;;
35494;SDS011;75532;49.300;6.846;2024-02-28T13:33:48;8.75;;;6.85;;
35494;SDS011;75532;49.300;6.846;2024-02-28T13:36:49;7.07;;;6.38;;
35494;SDS011;75532;49.300;6.846;2024-02-28T13:39:50;9.00;;;7.05;;
35494;SDS011;75532;49.300;6.846;2024-02-28T13:42:52;7.15;;;6.45;;
35494;SDS011;75532;49.300;6.846;2024-02-28T13:45:53;6.70;;;6.10;;
35494;SDS011;75532;49.300;6.846;2024-02-28T13:49:00;7.90;;;7.10;;
35494;SDS011;75532;49.300;6.846;2024-02-28T13:52:00;7.15;;;6.55;;
35494;SDS011;75532;49.300;6.846;2024-02-28T13:55:01;6.95;;;6.25;;
35494;SDS011;75532;49.300;6.846;2024-02-28T13:58:03;7.50;;;6.55;;
35494;SDS011;75532;49.300;6.846;2024-02-28T14:01:04;7.07;;;6.45;;
35494;SDS011;75532;49.300;6.846;2024-02-28T14:04:06;6.63;;;5.75;;
35494;SDS011;75532;49.300;6.846;2024-02-28T14:07:07;7.13;;;6.43;;
35494;SDS011;75532;49.300;6.846;2024-02-28T14:10:07;7.18;;;6.57;;
35494;SDS011;75532;49.300;6.846;2024-02-28T14:13:11;8.50;;;6.57;;
35494;SDS011;75532;49.300;6.846;2024-02-28T14:16:12;6.05;;;5.55;;
35494;SDS011;75532;49.300;6.846;2024-02-28T14:19:12;7.18;;;5.80;;
35494;SDS011;75532;49.300;6.846;2024-02-28T14:22:13;6.43;;;5.82;;
35494;SDS011;75532;49.300;6.846;2024-02-28T14:25:15;8.00;;;6.13;;
35494;SDS011;75532;49.300;6.846;2024-02-28T14:28:16;9.02;;;6.38;;
35494;SDS011;75532;49.300;6.846;2024-02-28T14:31:19;6.32;;;5.80;;
35494;SDS011;75532;49.300;6.846;2024-02-28T14:34:20;9.20;;;6.43;;
35494;SDS011;75532;49.300;6.846;2024-02-28T14:37:21;6.25;;;5.68;;
35494;SDS011;75532;49.300;6.846;2024-02-28T14:40:21;9.10;;;5.90;;
35494;SDS011;75532;49.300;6.846;2024-02-28T14:43:25;7.10;;;6.38;;
35494;SDS011;75532;49.300;6.846;2024-02-28T14:46:31;6.60;;;5.70;;
35494;SDS011;75532;49.300;6.846;2024-02-28T14:49:31;8.93;;;5.43;;
35494;SDS011;75532;49.300;6.846;2024-02-28T14:52:32;6.35;;;5.65;;
35494;SDS011;75532;49.300;6.846;2024-02-28T14:55:32;7.03;;;6.15;;
35494;SDS011;75532;49.300;6.846;2024-02-28T14:58:33;6.43;;;5.82;;
35494;SDS011;75532;49.300;6.846;2024-02-28T15:01:33;8.30;;;6.07;;
35494;SDS011;75532;49.300;6.846;2024-02-28T15:04:34;6.45;;;5.45;;
35494;SDS011;75532;49.300;6.846;2024-02-28T15:07:35;6.07;;;5.30;;
35494;SDS011;75532;49.300;6.846;2024-02-28T15:10:36;8.52;;;5.82;;
35494;SDS011;75532;49.300;6.846;2024-02-28T15:13:36;5.97;;;5.45;;
35494;SDS011;75532;49.300;6.846;2024-02-28T15:16:37;5.72;;;5.28;;
35494;SDS011;75532;49.300;6.846;2024-02-28T15:19:37;5.53;;;5.10;;
35494;SDS011;75532;49.300;6.846;2024-02-28T15:22:38;5.70;;;5.20;;
35494;SDS011;75532;49.300;6.846;2024-02-28T15:25:39;6.22;;;5.35;;
35494;SDS011;75532;49.300;6.846;2024-02-28T15:28:39;5.97;;;5.40;;
35494;SDS011;75532;49.300;6.846;2024-02-28T15:31:40;6.25;;;5.30;;
35494;SDS011;75532;49.300;6.846;2024-02-28T15:34:40;6.38;;;5.45;;
35494;SDS011;75532;49.300;6.846;2024-02-28T15:37:41;12.07;;;6.63;;
35494;SDS011;75532;49.300;6.846;2024-02-28T15:40:41;10.55;;;6.18;;
35494;SDS011;75532;49.300;6.846;2024-02-28T15:43:42;6.10;;;5.15;;
35494;SDS011;75532;49.300;6.846;2024-02-28T15:46:43;6.72;;;5.35;;
35494;SDS011;75532;49.300;6.846;2024-02-28T15:49:43;6.43;;;5.65;;
35494;SDS011;75532;49.300;6.846;2024-02-28T15:52:44;8.38;;;6.03;;
35494;SDS011;75532;49.300;6.846;2024-02-28T15:55:45;5.65;;;5.20;;
35494;SDS011;75532;49.300;6.846;2024-02-28T15:58:45;6.60;;;5.80;;
35494;SDS011;75532;49.300;6.846;2024-02-28T16:01:46;5.85;;;4.57;;
35494;SDS011;75532;49.300;6.846;2024-02-28T16:04:46;5.70;;;5.20;;
35494;SDS011;75532;49.300;6.846;2024-02-28T16:07:47;6.50;;;5.22;;
35494;SDS011;75532;49.300;6.846;2024-02-28T16:10:48;9.50;;;4.85;;
35494;SDS011;75532;49.300;6.846;2024-02-28T16:13:48;6.00;;;5.40;;
35494;SDS011;75532;49.300;6.846;2024-02-28T16:16:49;13.98;;;5.43;;
35494;SDS011;75532;49.300;6.846;2024-02-28T16:19:50;13.45;;;5.57;;
35494;SDS011;75532;49.300;6.846;2024-02-28T16:22:50;15.85;;;5.70;;
35494;SDS011;75532;49.300;6.846;2024-02-28T16:25:51;9.90;;;5.57;;
35494;SDS011;75532;49.300;6.846;2024-02-28T16:28:55;8.23;;;5.40;;
35494;SDS011;75532;49.300;6.846;2024-02-28T16:31:57;8.50;;;5.32;;
35494;SDS011;75532;49.300;6.846;2024-02-28T16:34:58;7.65;;;5.53;;
35494;SDS011;75532;49.300;6.846;2024-02-28T16:37:58;7.80;;;5.65;;
35494;SDS011;75532;49.300;6.846;2024-02-28T16:40:59;7.60;;;5.40;;
35494;SDS011;75532;49.300;6.846;2024-02-28T16:44:00;9.75;;;5.72;;
35494;SDS011;75532;49.300;6.846;2024-02-28T16:47:03;9.38;;;5.10;;
35494;SDS011;75532;49.300;6.846;2024-02-28T16:50:04;6.50;;;5.53;;
35494;SDS011;75532;49.300;6.846;2024-02-28T16:53:05;5.85;;;4.72;;
35494;SDS011;75532;49.300;6.846;2024-02-28T16:56:05;9.77;;;5.05;;
35494;SDS011;75532;49.300;6.846;2024-02-28T16:59:06;5.88;;;5.28;;
35494;SDS011;75532;49.300;6.846;2024-02-28T17:02:06;5.63;;;5.03;;
35494;SDS011;75532;49.300;6.846;2024-02-28T17:05:07;5.32;;;4.80;;
35494;SDS011;75532;49.300;6.846;2024-02-28T17:08:08;5.72;;;5.13;;
35494;SDS011;75532;49.300;6.846;2024-02-28T17:11:09;19.10;;;5.65;;
35494;SDS011;75532;49.300;6.846;2024-02-28T17:14:11;6.15;;;4.63;;
35494;SDS011;75532;49.300;6.846;2024-02-28T17:17:12;6.47;;;4.72;;
35494;SDS011;75532;49.300;6.846;2024-02-28T17:20:14;7.20;;;4.63;;
35494;SDS011;75532;49.300;6.846;2024-02-28T17:23:15;7.13;;;4.93;;
35494;SDS011;75532;49.300;6.846;2024-02-28T17:26:15;6.85;;;5.07;;
35494;SDS011;75532;49.300;6.846;2024-02-28T17:29:16;5.20;;;4.72;;
35494;SDS011;75532;49.300;6.846;2024-02-28T17:32:17;5.70;;;5.20;;
35494;SDS011;75532;49.300;6.846;2024-02-28T17:35:17;4.88;;;4.47;;
35494;SDS011;75532;49.300;6.846;2024-02-28T17:38:18;5.18;;;4.68;;
35494;SDS011;75532;49.300;6.846;2024-02-28T17:41:19;7.18;;;5.05;;
35494;SDS011;75532;49.300;6.846;2024-02-28T17:44:19;6.07;;;5.20;;
35494;SDS011;75532;49.300;6.846;2024-02-28T17:47:20;5.38;;;4.88;;
35494;SDS011;75532;49.300;6.846;2024-02-28T17:50:20;7.05;;;4.43;;
35494;SDS011;75532;49.300;6.846;2024-02-28T17:53:24;4.95;;;4.55;;
35494;SDS011;75532;49.300;6.846;2024-02-28T17:56:26;6.97;;;4.22;;
35494;SDS011;75532;49.300;6.846;2024-02-28T17:59:26;7.00;;;4.20;;
35494;SDS011;75532;49.300;6.846;2024-02-28T18:02:27;5.32;;;4.82;;
35494;SDS011;75532;49.300;6.846;2024-02-28T18:05:27;8.00;;;5.80;;
35494;SDS011;75532;49.300;6.846;2024-02-28T18:08:28;4.38;;;3.97;;